sensor_id;sensor_type;location;lat;lon;timestamp;temperature;humidity
14359;DHT22;7263;49.418;11.064;2023-02-15T00:01:24;-0.40;99.90
14359;DHT22;7263;49.418;11.064;2023-02-15T00:03:51;-0.50;99.90
14359;DHT22;7263;49.418;11.064;2023-02-15T00:06:18;-0.50;99.90
14359;DHT22;7263;49.418;11.064;2023-02-15T00:08:45;-0.60;99.90
14359;DHT22;7263;49.418;11.064;2023-02-15T00:11:14;-0.60;99.90
14359;DHT22;7263;49.418;11.064;2023-02-15T00:13:42;-0.60;99.90
14359;DHT22;7263;49.418;11.064;2023-02-15T00:16:11;-0.60;99.90
14359;DHT22;7263;49.418;11.064;2023-02-15T00:18:38;-0.60;99.90
14359;DHT22;7263;49.418;11.064;2023-02-15T00:21:07;-0.60;99.90
14359;DHT22;7263;49.418;11.064;2023-02-15T00:23:34;-0.60;99.90
14359;DHT22;7263;49.418;11.064;2023-02-15T00:26:06;-0.60;99.90
14359;DHT22;7263;49.418;11.064;2023-02-15T00:31:05;-0.70;99.90
14359;DHT22;7263;49.418;11.064;2023-02-15T00:33:32;-0.70;99.90
14359;DHT22;7263;49.418;11.064;2023-02-15T00:36:00;-0.60;99.90
14359;DHT22;7263;49.418;11.064;2023-02-15T00:38:27;-0.70;99.90
14359;DHT22;7263;49.418;11.064;2023-02-15T00:40:54;-0.70;99.90
14359;DHT22;7263;49.418;11.064;2023-02-15T00:43:21;-0.60;99.90
14359;DHT22;7263;49.418;11.064;2023-02-15T00:45:48;-0.60;99.90
14359;DHT22;7263;49.418;11.064;2023-02-15T00:48:16;-0.60;99.90
14359;DHT22;7263;49.418;11.064;2023-02-15T00:50:44;-0.60;99.90
14359;DHT22;7263;49.418;11.064;2023-02-15T00:55:38;-0.50;99.90
14359;DHT22;7263;49.418;11.064;2023-02-15T00:58:05;-0.50;99.90
14359;DHT22;7263;49.418;11.064;2023-02-15T01:00:32;-0.50;99.90
14359;DHT22;7263;49.418;11.064;2023-02-15T01:02:59;-0.60;99.90
14359;DHT22;7263;49.418;11.064;2023-02-15T01:05:27;-0.60;99.90
14359;DHT22;7263;49.418;11.064;2023-02-15T01:07:55;-0.50;99.90
14359;DHT22;7263;49.418;11.064;2023-02-15T01:10:22;-0.50;99.90
14359;DHT22;7263;49.418;11.064;2023-02-15T01:12:50;-0.50;99.90
14359;DHT22;7263;49.418;11.064;2023-02-15T01:15:16;-0.50;99.90
14359;DHT22;7263;49.418;11.064;2023-02-15T01:17:43;-0.50;99.90
14359;DHT22;7263;49.418;11.064;2023-02-15T01:20:16;-0.50;99.90
14359;DHT22;7263;49.418;11.064;2023-02-15T01:22:45;-0.50;99.90
14359;DHT22;7263;49.418;11.064;2023-02-15T01:25:12;-0.40;99.90
14359;DHT22;7263;49.418;11.064;2023-02-15T01:27:38;-0.50;99.90
14359;DHT22;7263;49.418;11.064;2023-02-15T01:30:06;-0.50;99.90
14359;DHT22;7263;49.418;11.064;2023-02-15T01:32:34;-0.50;99.90
14359;DHT22;7263;49.418;11.064;2023-02-15T01:35:01;-0.50;99.90
14359;DHT22;7263;49.418;11.064;2023-02-15T01:37:30;-0.50;99.90
14359;DHT22;7263;49.418;11.064;2023-02-15T01:39:58;-0.50;99.90
14359;DHT22;7263;49.418;11.064;2023-02-15T01:42:26;-0.50;99.90
14359;DHT22;7263;49.418;11.064;2023-02-15T01:44:54;-0.60;99.90
14359;DHT22;7263;49.418;11.064;2023-02-15T01:47:27;-0.70;99.90
14359;DHT22;7263;49.418;11.064;2023-02-15T01:52:27;-0.70;99.90
14359;DHT22;7263;49.418;11.064;2023-02-15T01:54:55;-0.70;99.90
14359;DHT22;7263;49.418;11.064;2023-02-15T01:57:25;-0.60;99.90
14359;DHT22;7263;49.418;11.064;2023-02-15T01:59:56;-0.70;99.90
14359;DHT22;7263;49.418;11.064;2023-02-15T02:02:25;-0.60;99.90
14359;DHT22;7263;49.418;11.064;2023-02-15T02:04:58;-0.60;99.90
14359;DHT22;7263;49.418;11.064;2023-02-15T02:07:30;-0.60;99.90
14359;DHT22;7263;49.418;11.064;2023-02-15T02:09:59;-0.70;99.90
14359;DHT22;7263;49.418;11.064;2023-02-15T02:12:29;-0.70;99.90
14359;DHT22;7263;49.418;11.064;2023-02-15T02:14:56;-0.70;99.90
14359;DHT22;7263;49.418;11.064;2023-02-15T02:20:35;-0.80;99.90
14359;DHT22;7263;49.418;11.064;2023-02-15T02:29:14;-0.80;99.90
14359;DHT22;7263;49.418;11.064;2023-02-15T02:32:15;-0.90;99.90
14359;DHT22;7263;49.418;11.064;2023-02-15T02:34:57;-0.90;99.90
14359;DHT22;7263;49.418;11.064;2023-02-15T02:37:33;-0.90;99.90
14359;DHT22;7263;49.418;11.064;2023-02-15T02:40:08;-1.00;99.90
14359;DHT22;7263;49.418;11.064;2023-02-15T02:42:41;-0.90;99.90
14359;DHT22;7263;49.418;11.064;2023-02-15T02:45:12;-0.90;99.90
14359;DHT22;7263;49.418;11.064;2023-02-15T02:47:44;-0.90;99.90
14359;DHT22;7263;49.418;11.064;2023-02-15T02:50:16;-0.90;99.90
14359;DHT22;7263;49.418;11.064;2023-02-15T02:52:44;-0.80;99.90
14359;DHT22;7263;49.418;11.064;2023-02-15T02:55:15;-0.80;99.90
14359;DHT22;7263;49.418;11.064;2023-02-15T02:57:49;-0.80;99.90
14359;DHT22;7263;49.418;11.064;2023-02-15T03:00:19;-0.70;99.90
14359;DHT22;7263;49.418;11.064;2023-02-15T03:02:50;-0.80;99.90
14359;DHT22;7263;49.418;11.064;2023-02-15T03:05:24;-0.80;99.90
14359;DHT22;7263;49.418;11.064;2023-02-15T03:07:53;-0.80;99.90
14359;DHT22;7263;49.418;11.064;2023-02-15T03:10:22;-0.80;99.90
14359;DHT22;7263;49.418;11.064;2023-02-15T03:12:50;-0.90;99.90
14359;DHT22;7263;49.418;11.064;2023-02-15T03:15:20;-0.90;99.90
14359;DHT22;7263;49.418;11.064;2023-02-15T03:17:51;-0.90;99.90
14359;DHT22;7263;49.418;11.064;2023-02-15T03:20:24;-0.90;99.90
14359;DHT22;7263;49.418;11.064;2023-02-15T03:22:55;-1.00;99.90
14359;DHT22;7263;49.418;11.064;2023-02-15T03:25:26;-1.00;99.90
14359;DHT22;7263;49.418;11.064;2023-02-15T03:27:59;-1.00;99.90
14359;DHT22;7263;49.418;11.064;2023-02-15T03:30:28;-1.10;99.90
14359;DHT22;7263;49.418;11.064;2023-02-15T03:32:57;-1.10;99.90
14359;DHT22;7263;49.418;11.064;2023-02-15T03:35:33;-1.10;99.90
14359;DHT22;7263;49.418;11.064;2023-02-15T03:38:02;-1.10;99.90
14359;DHT22;7263;49.418;11.064;2023-02-15T03:40:33;-1.20;99.90
14359;DHT22;7263;49.418;11.064;2023-02-15T03:43:23;-1.20;99.90
14359;DHT22;7263;49.418;11.064;2023-02-15T03:45:56;-1.10;99.90
14359;DHT22;7263;49.418;11.064;2023-02-15T03:48:27;-1.10;99.90
14359;DHT22;7263;49.418;11.064;2023-02-15T03:51:00;-1.00;99.90
14359;DHT22;7263;49.418;11.064;2023-02-15T03:53:48;-1.00;99.90
14359;DHT22;7263;49.418;11.064;2023-02-15T03:56:15;-1.00;99.90
14359;DHT22;7263;49.418;11.064;2023-02-15T03:58:42;-1.00;99.90
14359;DHT22;7263;49.418;11.064;2023-02-15T04:01:33;-1.00;99.90
14359;DHT22;7263;49.418;11.064;2023-02-15T04:04:26;-1.20;99.90
14359;DHT22;7263;49.418;11.064;2023-02-15T04:06:56;-1.20;99.90
14359;DHT22;7263;49.418;11.064;2023-02-15T04:09:23;-1.30;99.90
14359;DHT22;7263;49.418;11.064;2023-02-15T04:12:07;-1.20;99.90
14359;DHT22;7263;49.418;11.064;2023-02-15T04:14:34;-1.30;99.90
14359;DHT22;7263;49.418;11.064;2023-02-15T04:17:18;-1.30;99.90
14359;DHT22;7263;49.418;11.064;2023-02-15T04:19:45;-1.40;99.90
14359;DHT22;7263;49.418;11.064;2023-02-15T04:22:31;-1.40;99.90
14359;DHT22;7263;49.418;11.064;2023-02-15T04:25:15;-1.40;99.90
14359;DHT22;7263;49.418;11.064;2023-02-15T04:27:43;-1.40;99.90
14359;DHT22;7263;49.418;11.064;2023-02-15T04:30:12;-1.40;99.90
14359;DHT22;7263;49.418;11.064;2023-02-15T04:32:39;-1.40;99.90
14359;DHT22;7263;49.418;11.064;2023-02-15T04:35:06;-1.40;99.90
14359;DHT22;7263;49.418;11.064;2023-02-15T04:37:35;-1.40;99.90
14359;DHT22;7263;49.418;11.064;2023-02-15T04:40:02;-1.30;99.90
14359;DHT22;7263;49.418;11.064;2023-02-15T04:42:29;-1.40;99.90
14359;DHT22;7263;49.418;11.064;2023-02-15T04:44:56;-1.40;99.90
14359;DHT22;7263;49.418;11.064;2023-02-15T04:47:23;-1.40;99.90
14359;DHT22;7263;49.418;11.064;2023-02-15T04:49:50;-1.40;99.90
14359;DHT22;7263;49.418;11.064;2023-02-15T04:52:16;-1.40;99.90
14359;DHT22;7263;49.418;11.064;2023-02-15T04:54:45;-1.40;99.90
14359;DHT22;7263;49.418;11.064;2023-02-15T04:57:12;-1.40;99.90
14359;DHT22;7263;49.418;11.064;2023-02-15T04:59:39;-1.40;99.90
14359;DHT22;7263;49.418;11.064;2023-02-15T05:02:06;-1.40;99.90
14359;DHT22;7263;49.418;11.064;2023-02-15T05:04:33;-1.40;99.90
14359;DHT22;7263;49.418;11.064;2023-02-15T05:06:59;-1.40;99.90
14359;DHT22;7263;49.418;11.064;2023-02-15T05:09:26;-1.40;99.90
14359;DHT22;7263;49.418;11.064;2023-02-15T05:11:54;-1.40;99.90
14359;DHT22;7263;49.418;11.064;2023-02-15T05:14:21;-1.50;99.90
14359;DHT22;7263;49.418;11.064;2023-02-15T05:16:48;-1.40;99.90
14359;DHT22;7263;49.418;11.064;2023-02-15T05:19:15;-1.50;99.90
14359;DHT22;7263;49.418;11.064;2023-02-15T05:21:42;-1.50;99.90
14359;DHT22;7263;49.418;11.064;2023-02-15T05:24:08;-1.50;99.90
14359;DHT22;7263;49.418;11.064;2023-02-15T05:26:49;-1.50;99.90
14359;DHT22;7263;49.418;11.064;2023-02-15T05:29:35;-1.50;99.90
14359;DHT22;7263;49.418;11.064;2023-02-15T05:32:01;-1.50;99.90
14359;DHT22;7263;49.418;11.064;2023-02-15T05:34:29;-1.40;99.90
14359;DHT22;7263;49.418;11.064;2023-02-15T05:36:56;-1.40;99.90
14359;DHT22;7263;49.418;11.064;2023-02-15T05:39:23;-1.50;99.90
14359;DHT22;7263;49.418;11.064;2023-02-15T05:41:49;-1.50;99.90
14359;DHT22;7263;49.418;11.064;2023-02-15T05:44:16;-1.50;99.90
14359;DHT22;7263;49.418;11.064;2023-02-15T05:46:44;-1.50;99.90
14359;DHT22;7263;49.418;11.064;2023-02-15T05:49:11;-1.50;99.90
14359;DHT22;7263;49.418;11.064;2023-02-15T05:51:38;-1.60;99.90
14359;DHT22;7263;49.418;11.064;2023-02-15T05:54:05;-1.60;99.90
14359;DHT22;7263;49.418;11.064;2023-02-15T05:56:31;-1.60;99.90
14359;DHT22;7263;49.418;11.064;2023-02-15T05:58:58;-1.60;99.90
14359;DHT22;7263;49.418;11.064;2023-02-15T06:01:25;-1.60;99.90
14359;DHT22;7263;49.418;11.064;2023-02-15T06:03:53;-1.60;99.90
14359;DHT22;7263;49.418;11.064;2023-02-15T06:06:21;-1.50;99.90
14359;DHT22;7263;49.418;11.064;2023-02-15T06:08:48;-1.50;99.90
14359;DHT22;7263;49.418;11.064;2023-02-15T06:11:14;-1.50;99.90
14359;DHT22;7263;49.418;11.064;2023-02-15T06:13:41;-1.50;99.90
14359;DHT22;7263;49.418;11.064;2023-02-15T06:16:08;-1.60;99.90
14359;DHT22;7263;49.418;11.064;2023-02-15T06:18:35;-1.60;99.90
14359;DHT22;7263;49.418;11.064;2023-02-15T06:21:03;-1.50;99.90
14359;DHT22;7263;49.418;11.064;2023-02-15T06:23:29;-1.60;99.90
14359;DHT22;7263;49.418;11.064;2023-02-15T06:25:56;-1.60;99.90
14359;DHT22;7263;49.418;11.064;2023-02-15T06:28:23;-1.60;99.90
14359;DHT22;7263;49.418;11.064;2023-02-15T06:30:51;-1.60;99.90
14359;DHT22;7263;49.418;11.064;2023-02-15T06:33:18;-1.60;99.90
14359;DHT22;7263;49.418;11.064;2023-02-15T06:35:45;-1.60;99.90
14359;DHT22;7263;49.418;11.064;2023-02-15T06:38:13;-1.60;99.90
14359;DHT22;7263;49.418;11.064;2023-02-15T06:43:07;-1.60;99.90
14359;DHT22;7263;49.418;11.064;2023-02-15T06:45:33;-1.60;99.90
14359;DHT22;7263;49.418;11.064;2023-02-15T06:48:00;-1.60;99.90
14359;DHT22;7263;49.418;11.064;2023-02-15T06:50:27;-1.60;99.90
14359;DHT22;7263;49.418;11.064;2023-02-15T06:52:56;-1.60;99.90
14359;DHT22;7263;49.418;11.064;2023-02-15T06:55:24;-1.50;99.90
14359;DHT22;7263;49.418;11.064;2023-02-15T06:57:51;-1.50;99.90
14359;DHT22;7263;49.418;11.064;2023-02-15T07:00:18;-1.50;99.90
14359;DHT22;7263;49.418;11.064;2023-02-15T07:02:47;-1.50;99.90
14359;DHT22;7263;49.418;11.064;2023-02-15T07:05:14;-1.50;99.90
14359;DHT22;7263;49.418;11.064;2023-02-15T07:07:41;-1.40;99.90
14359;DHT22;7263;49.418;11.064;2023-02-15T07:10:08;-1.40;99.90
14359;DHT22;7263;49.418;11.064;2023-02-15T07:12:36;-1.40;99.90
14359;DHT22;7263;49.418;11.064;2023-02-15T07:15:08;-1.40;99.90
14359;DHT22;7263;49.418;11.064;2023-02-15T07:17:36;-1.40;99.90
14359;DHT22;7263;49.418;11.064;2023-02-15T07:20:03;-1.40;99.90
14359;DHT22;7263;49.418;11.064;2023-02-15T07:22:30;-1.40;99.90
14359;DHT22;7263;49.418;11.064;2023-02-15T07:24:59;-1.40;99.90
14359;DHT22;7263;49.418;11.064;2023-02-15T07:27:26;-1.40;99.90
14359;DHT22;7263;49.418;11.064;2023-02-15T07:29:54;-1.30;99.90
14359;DHT22;7263;49.418;11.064;2023-02-15T07:32:21;-1.30;99.90
14359;DHT22;7263;49.418;11.064;2023-02-15T07:34:47;-1.20;99.90
14359;DHT22;7263;49.418;11.064;2023-02-15T07:37:14;-1.30;99.90
14359;DHT22;7263;49.418;11.064;2023-02-15T07:39:41;-1.40;99.90
14359;DHT22;7263;49.418;11.064;2023-02-15T07:42:08;-1.30;99.90
14359;DHT22;7263;49.418;11.064;2023-02-15T07:44:34;-1.40;99.90
14359;DHT22;7263;49.418;11.064;2023-02-15T07:47:02;-1.40;99.90
14359;DHT22;7263;49.418;11.064;2023-02-15T07:49:29;-1.40;99.90
14359;DHT22;7263;49.418;11.064;2023-02-15T07:51:56;-1.40;99.90
14359;DHT22;7263;49.418;11.064;2023-02-15T07:54:23;-1.70;99.90
14359;DHT22;7263;49.418;11.064;2023-02-15T08:00:13;-1.10;99.90
14359;DHT22;7263;49.418;11.064;2023-02-15T08:02:41;-1.00;99.90
14359;DHT22;7263;49.418;11.064;2023-02-15T08:05:08;-1.00;99.90
14359;DHT22;7263;49.418;11.064;2023-02-15T08:07:35;-0.90;99.90
14359;DHT22;7263;49.418;11.064;2023-02-15T08:10:02;-0.90;99.90
14359;DHT22;7263;49.418;11.064;2023-02-15T08:12:29;-1.00;99.90
14359;DHT22;7263;49.418;11.064;2023-02-15T08:14:55;-1.00;99.90
14359;DHT22;7263;49.418;11.064;2023-02-15T08:17:22;-1.00;99.90
14359;DHT22;7263;49.418;11.064;2023-02-15T08:19:50;-0.80;99.90
14359;DHT22;7263;49.418;11.064;2023-02-15T08:22:17;-0.90;99.90
14359;DHT22;7263;49.418;11.064;2023-02-15T08:24:44;-1.00;99.90
14359;DHT22;7263;49.418;11.064;2023-02-15T08:27:11;-1.00;99.90
14359;DHT22;7263;49.418;11.064;2023-02-15T08:29:38;-0.90;99.90
14359;DHT22;7263;49.418;11.064;2023-02-15T08:32:09;-1.00;99.90
14359;DHT22;7263;49.418;11.064;2023-02-15T08:34:38;-0.90;99.90
14359;DHT22;7263;49.418;11.064;2023-02-15T08:37:06;-1.00;99.90
14359;DHT22;7263;49.418;11.064;2023-02-15T08:39:33;-1.00;99.90
14359;DHT22;7263;49.418;11.064;2023-02-15T08:42:00;-1.00;99.90
14359;DHT22;7263;49.418;11.064;2023-02-15T08:44:27;-1.00;99.90
14359;DHT22;7263;49.418;11.064;2023-02-15T08:46:54;-1.00;99.90
14359;DHT22;7263;49.418;11.064;2023-02-15T08:49:22;-0.80;99.90
14359;DHT22;7263;49.418;11.064;2023-02-15T08:51:50;-0.60;99.90
14359;DHT22;7263;49.418;11.064;2023-02-15T08:54:19;-0.50;99.90
14359;DHT22;7263;49.418;11.064;2023-02-15T08:56:46;-0.40;99.90
14359;DHT22;7263;49.418;11.064;2023-02-15T08:59:15;-0.40;99.90
14359;DHT22;7263;49.418;11.064;2023-02-15T09:01:42;-0.40;99.90
14359;DHT22;7263;49.418;11.064;2023-02-15T09:04:10;-0.40;99.90
14359;DHT22;7263;49.418;11.064;2023-02-15T09:06:39;-0.50;99.90
14359;DHT22;7263;49.418;11.064;2023-02-15T09:09:07;-0.60;99.90
14359;DHT22;7263;49.418;11.064;2023-02-15T09:11:37;-0.60;99.90
14359;DHT22;7263;49.418;11.064;2023-02-15T09:14:05;-0.60;99.90
14359;DHT22;7263;49.418;11.064;2023-02-15T09:16:35;-0.60;99.90
14359;DHT22;7263;49.418;11.064;2023-02-15T09:19:02;1.70;99.90
14359;DHT22;7263;49.418;11.064;2023-02-15T09:21:30;-0.60;99.90
14359;DHT22;7263;49.418;11.064;2023-02-15T09:23:58;-0.50;99.90
14359;DHT22;7263;49.418;11.064;2023-02-15T09:26:28;-0.40;99.90
14359;DHT22;7263;49.418;11.064;2023-02-15T09:28:57;-0.40;99.90
14359;DHT22;7263;49.418;11.064;2023-02-15T09:31:26;-0.30;99.90
14359;DHT22;7263;49.418;11.064;2023-02-15T09:33:54;-0.20;99.90
14359;DHT22;7263;49.418;11.064;2023-02-15T09:36:23;-0.20;99.90
14359;DHT22;7263;49.418;11.064;2023-02-15T09:38:54;-0.20;99.90
14359;DHT22;7263;49.418;11.064;2023-02-15T09:41:37;-0.20;99.90
14359;DHT22;7263;49.418;11.064;2023-02-15T09:44:17;0.00;99.90
14359;DHT22;7263;49.418;11.064;2023-02-15T09:47:06;0.10;99.90
14359;DHT22;7263;49.418;11.064;2023-02-15T09:49:44;0.10;99.90
14359;DHT22;7263;49.418;11.064;2023-02-15T09:52:24;0.20;99.90
14359;DHT22;7263;49.418;11.064;2023-02-15T09:55:12;0.00;99.90
14359;DHT22;7263;49.418;11.064;2023-02-15T09:57:46;0.00;99.90
14359;DHT22;7263;49.418;11.064;2023-02-15T10:00:25;0.10;99.90
14359;DHT22;7263;49.418;11.064;2023-02-15T10:03:07;0.10;99.90
14359;DHT22;7263;49.418;11.064;2023-02-15T10:05:45;0.10;99.90
14359;DHT22;7263;49.418;11.064;2023-02-15T10:11:11;0.10;99.90
14359;DHT22;7263;49.418;11.064;2023-02-15T10:14:07;0.20;99.90
14359;DHT22;7263;49.418;11.064;2023-02-15T10:16:49;0.30;99.90
14359;DHT22;7263;49.418;11.064;2023-02-15T10:19:23;0.30;99.90
14359;DHT22;7263;49.418;11.064;2023-02-15T10:22:01;0.50;99.90
14359;DHT22;7263;49.418;11.064;2023-02-15T10:24:47;0.60;99.90
14359;DHT22;7263;49.418;11.064;2023-02-15T10:27:19;0.80;99.90
14359;DHT22;7263;49.418;11.064;2023-02-15T10:29:55;0.90;99.90
14359;DHT22;7263;49.418;11.064;2023-02-15T10:32:27;0.80;99.90
14359;DHT22;7263;49.418;11.064;2023-02-15T10:34:59;0.80;99.90
14359;DHT22;7263;49.418;11.064;2023-02-15T10:37:43;0.80;99.90
14359;DHT22;7263;49.418;11.064;2023-02-15T10:40:21;0.70;99.90
14359;DHT22;7263;49.418;11.064;2023-02-15T10:43:01;0.70;99.90
14359;DHT22;7263;49.418;11.064;2023-02-15T10:45:40;0.90;99.90
14359;DHT22;7263;49.418;11.064;2023-02-15T10:48:22;1.00;99.90
14359;DHT22;7263;49.418;11.064;2023-02-15T10:50:53;1.20;99.90
14359;DHT22;7263;49.418;11.064;2023-02-15T10:56:29;1.10;99.90
14359;DHT22;7263;49.418;11.064;2023-02-15T10:59:06;1.30;99.90
14359;DHT22;7263;49.418;11.064;2023-02-15T11:01:41;1.40;99.90
14359;DHT22;7263;49.418;11.064;2023-02-15T11:04:30;1.60;99.90
14359;DHT22;7263;49.418;11.064;2023-02-15T11:07:03;1.80;99.90
14359;DHT22;7263;49.418;11.064;2023-02-15T11:09:37;1.90;99.90
14359;DHT22;7263;49.418;11.064;2023-02-15T11:12:09;1.90;99.90
14359;DHT22;7263;49.418;11.064;2023-02-15T11:14:41;2.20;99.90
14359;DHT22;7263;49.418;11.064;2023-02-15T11:17:13;2.30;99.90
14359;DHT22;7263;49.418;11.064;2023-02-15T11:19:48;2.70;99.90
14359;DHT22;7263;49.418;11.064;2023-02-15T11:22:18;2.50;99.90
14359;DHT22;7263;49.418;11.064;2023-02-15T11:24:46;2.30;99.90
14359;DHT22;7263;49.418;11.064;2023-02-15T11:27:19;2.30;99.90
14359;DHT22;7263;49.418;11.064;2023-02-15T11:29:52;2.20;99.90
14359;DHT22;7263;49.418;11.064;2023-02-15T11:32:24;2.10;99.90
14359;DHT22;7263;49.418;11.064;2023-02-15T11:34:56;2.00;99.90
14359;DHT22;7263;49.418;11.064;2023-02-15T11:37:29;2.10;99.90
14359;DHT22;7263;49.418;11.064;2023-02-15T11:40:00;2.30;99.90
14359;DHT22;7263;49.418;11.064;2023-02-15T11:42:30;2.40;99.90
14359;DHT22;7263;49.418;11.064;2023-02-15T11:45:02;2.40;99.90
14359;DHT22;7263;49.418;11.064;2023-02-15T11:47:31;2.50;99.90
14359;DHT22;7263;49.418;11.064;2023-02-15T11:49:59;2.50;99.90
14359;DHT22;7263;49.418;11.064;2023-02-15T11:52:26;2.50;99.90
14359;DHT22;7263;49.418;11.064;2023-02-15T11:54:53;5.20;99.90
14359;DHT22;7263;49.418;11.064;2023-02-15T11:57:25;2.90;99.90
14359;DHT22;7263;49.418;11.064;2023-02-15T11:59:57;3.30;99.90
14359;DHT22;7263;49.418;11.064;2023-02-15T12:02:24;3.40;99.90
14359;DHT22;7263;49.418;11.064;2023-02-15T12:04:55;6.00;99.90
14359;DHT22;7263;49.418;11.064;2023-02-15T12:07:26;3.40;99.90
14359;DHT22;7263;49.418;11.064;2023-02-15T12:10:00;3.40;99.90
14359;DHT22;7263;49.418;11.064;2023-02-15T12:12:33;3.30;99.90
14359;DHT22;7263;49.418;11.064;2023-02-15T12:15:02;3.10;99.90
14359;DHT22;7263;49.418;11.064;2023-02-15T12:17:32;2.80;99.90
14359;DHT22;7263;49.418;11.064;2023-02-15T12:20:01;2.60;99.90
14359;DHT22;7263;49.418;11.064;2023-02-15T12:22:32;2.70;99.90
14359;DHT22;7263;49.418;11.064;2023-02-15T12:25:10;2.90;99.90
14359;DHT22;7263;49.418;11.064;2023-02-15T12:27:46;3.20;99.90
14359;DHT22;7263;49.418;11.064;2023-02-15T12:30:18;3.40;99.90
14359;DHT22;7263;49.418;11.064;2023-02-15T12:32:49;3.70;99.90
14359;DHT22;7263;49.418;11.064;2023-02-15T12:35:24;4.00;99.90
14359;DHT22;7263;49.418;11.064;2023-02-15T12:37:55;4.00;99.90
14359;DHT22;7263;49.418;11.064;2023-02-15T12:40:24;4.10;99.90
14359;DHT22;7263;49.418;11.064;2023-02-15T12:42:53;4.20;99.90
14359;DHT22;7263;49.418;11.064;2023-02-15T12:45:23;4.30;99.90
14359;DHT22;7263;49.418;11.064;2023-02-15T12:48:09;4.30;99.90
14359;DHT22;7263;49.418;11.064;2023-02-15T12:50:36;4.20;99.90
14359;DHT22;7263;49.418;11.064;2023-02-15T12:53:13;4.10;99.90
14359;DHT22;7263;49.418;11.064;2023-02-15T12:55:50;3.90;99.90
14359;DHT22;7263;49.418;11.064;2023-02-15T12:58:18;3.80;99.90
14359;DHT22;7263;49.418;11.064;2023-02-15T13:00:46;3.80;99.90
14359;DHT22;7263;49.418;11.064;2023-02-15T13:03:18;3.80;99.90
14359;DHT22;7263;49.418;11.064;2023-02-15T13:05:47;3.70;99.90
14359;DHT22;7263;49.418;11.064;2023-02-15T13:08:20;3.70;99.90
14359;DHT22;7263;49.418;11.064;2023-02-15T13:10:53;3.70;99.90
14359;DHT22;7263;49.418;11.064;2023-02-15T13:13:24;3.70;99.90
14359;DHT22;7263;49.418;11.064;2023-02-15T13:15:54;3.70;99.90
14359;DHT22;7263;49.418;11.064;2023-02-15T13:18:29;3.80;99.90
14359;DHT22;7263;49.418;11.064;2023-02-15T13:20:58;3.80;99.90
14359;DHT22;7263;49.418;11.064;2023-02-15T13:23:28;3.80;99.90
14359;DHT22;7263;49.418;11.064;2023-02-15T13:25:57;3.70;99.90
14359;DHT22;7263;49.418;11.064;2023-02-15T13:28:31;3.70;99.90
14359;DHT22;7263;49.418;11.064;2023-02-15T13:30:59;3.60;99.90
14359;DHT22;7263;49.418;11.064;2023-02-15T13:33:31;3.60;99.90
14359;DHT22;7263;49.418;11.064;2023-02-15T13:36:05;3.60;99.90
14359;DHT22;7263;49.418;11.064;2023-02-15T13:38:46;3.60;99.90
14359;DHT22;7263;49.418;11.064;2023-02-15T13:41:19;3.60;99.90
14359;DHT22;7263;49.418;11.064;2023-02-15T13:43:55;3.60;99.90
14359;DHT22;7263;49.418;11.064;2023-02-15T13:46:43;3.60;99.90
14359;DHT22;7263;49.418;11.064;2023-02-15T13:49:20;3.70;99.90
14359;DHT22;7263;49.418;11.064;2023-02-15T13:51:54;3.90;99.90
14359;DHT22;7263;49.418;11.064;2023-02-15T13:54:36;3.90;99.90
14359;DHT22;7263;49.418;11.064;2023-02-15T13:57:25;4.00;99.90
14359;DHT22;7263;49.418;11.064;2023-02-15T14:00:08;4.00;99.90
14359;DHT22;7263;49.418;11.064;2023-02-15T14:05:51;4.10;99.90
14359;DHT22;7263;49.418;11.064;2023-02-15T14:08:30;4.10;99.90
14359;DHT22;7263;49.418;11.064;2023-02-15T14:11:05;4.30;99.90
14359;DHT22;7263;49.418;11.064;2023-02-15T14:16:36;4.30;99.90
14359;DHT22;7263;49.418;11.064;2023-02-15T14:19:14;4.30;99.90
14359;DHT22;7263;49.418;11.064;2023-02-15T14:21:48;4.30;99.90
14359;DHT22;7263;49.418;11.064;2023-02-15T14:24:27;4.20;99.90
14359;DHT22;7263;49.418;11.064;2023-02-15T14:27:09;4.20;99.90
14359;DHT22;7263;49.418;11.064;2023-02-15T14:29:47;4.20;99.90
14359;DHT22;7263;49.418;11.064;2023-02-15T14:32:19;4.20;99.90
14359;DHT22;7263;49.418;11.064;2023-02-15T14:34:51;4.30;99.90
14359;DHT22;7263;49.418;11.064;2023-02-15T14:37:27;4.30;99.90
14359;DHT22;7263;49.418;11.064;2023-02-15T14:39:58;4.30;99.90
14359;DHT22;7263;49.418;11.064;2023-02-15T14:42:52;4.30;99.90
14359;DHT22;7263;49.418;11.064;2023-02-15T14:45:25;4.30;99.90
14359;DHT22;7263;49.418;11.064;2023-02-15T14:48:03;4.30;99.90
14359;DHT22;7263;49.418;11.064;2023-02-15T14:50:45;4.40;99.90
14359;DHT22;7263;49.418;11.064;2023-02-15T14:53:37;4.50;99.90
14359;DHT22;7263;49.418;11.064;2023-02-15T14:56:23;4.60;99.90
14359;DHT22;7263;49.418;11.064;2023-02-15T14:59:18;4.60;99.90
14359;DHT22;7263;49.418;11.064;2023-02-15T15:01:55;4.50;99.90
14359;DHT22;7263;49.418;11.064;2023-02-15T15:04:31;4.50;99.90
14359;DHT22;7263;49.418;11.064;2023-02-15T15:07:03;4.50;99.90
14359;DHT22;7263;49.418;11.064;2023-02-15T15:09:36;4.50;99.90
14359;DHT22;7263;49.418;11.064;2023-02-15T15:12:18;4.50;99.90
14359;DHT22;7263;49.418;11.064;2023-02-15T15:15:04;4.50;99.90
14359;DHT22;7263;49.418;11.064;2023-02-15T15:17:57;4.50;99.90
14359;DHT22;7263;49.418;11.064;2023-02-15T15:20:45;4.50;99.90
14359;DHT22;7263;49.418;11.064;2023-02-15T15:23:43;4.50;99.90
14359;DHT22;7263;49.418;11.064;2023-02-15T15:26:27;4.50;99.90
14359;DHT22;7263;49.418;11.064;2023-02-15T15:28:59;4.50;99.90
14359;DHT22;7263;49.418;11.064;2023-02-15T15:31:42;4.40;99.90
14359;DHT22;7263;49.418;11.064;2023-02-15T15:37:30;4.30;99.90
14359;DHT22;7263;49.418;11.064;2023-02-15T15:40:22;4.20;99.90
14359;DHT22;7263;49.418;11.064;2023-02-15T15:43:13;4.10;99.90
14359;DHT22;7263;49.418;11.064;2023-02-15T15:46:04;4.10;99.90
14359;DHT22;7263;49.418;11.064;2023-02-15T15:48:35;4.10;99.90
14359;DHT22;7263;49.418;11.064;2023-02-15T15:51:06;4.00;99.90
14359;DHT22;7263;49.418;11.064;2023-02-15T15:53:40;4.00;99.90
14359;DHT22;7263;49.418;11.064;2023-02-15T15:56:14;3.90;99.90
14359;DHT22;7263;49.418;11.064;2023-02-15T15:58:46;3.80;99.90
14359;DHT22;7263;49.418;11.064;2023-02-15T16:01:14;3.70;99.90
14359;DHT22;7263;49.418;11.064;2023-02-15T16:03:51;3.60;99.90
14359;DHT22;7263;49.418;11.064;2023-02-15T16:06:29;3.50;99.90
14359;DHT22;7263;49.418;11.064;2023-02-15T16:08:56;3.40;99.90
14359;DHT22;7263;49.418;11.064;2023-02-15T16:11:25;3.30;99.90
14359;DHT22;7263;49.418;11.064;2023-02-15T16:13:52;3.20;99.90
14359;DHT22;7263;49.418;11.064;2023-02-15T16:16:21;3.10;99.90
14359;DHT22;7263;49.418;11.064;2023-02-15T16:18:50;3.00;99.90
14359;DHT22;7263;49.418;11.064;2023-02-15T16:21:20;2.90;99.90
14359;DHT22;7263;49.418;11.064;2023-02-15T16:24:03;2.80;99.90
14359;DHT22;7263;49.418;11.064;2023-02-15T16:27:19;2.60;99.90
14359;DHT22;7263;49.418;11.064;2023-02-15T16:29:49;2.50;99.90
14359;DHT22;7263;49.418;11.064;2023-02-15T16:32:18;2.30;99.90
14359;DHT22;7263;49.418;11.064;2023-02-15T16:34:58;2.20;99.90
14359;DHT22;7263;49.418;11.064;2023-02-15T16:37:27;2.10;99.90
14359;DHT22;7263;49.418;11.064;2023-02-15T16:39:55;2.00;99.90
14359;DHT22;7263;49.418;11.064;2023-02-15T16:42:23;2.00;99.90
14359;DHT22;7263;49.418;11.064;2023-02-15T16:44:53;1.90;99.90